CheckWX is a tool to help pilots better visualize weather data.  It is not intended as a substitute for an official pre-flight weather briefing.

05:05:18 UTC

KPMD TAF
Palmdale Usaf Plant 42 Airport
Palmdale, California, USA
KPMD 200408Z 2004/2024 28010KT P6SM BKN110 FM200600 22015KT P6SM OVC100 FM200900 24015KT P6SM VCSH BKN040 OVC080 FM201500 23015KT 5SM -SHRA BKN025 OVC040 FM202100 23015KT P6SM -SHRA BKN030 OVC050

Nov-20@
04:00 UTC

Nov-20 @ 04:00 UTC

Nov-20@
06:00 UTC

Nov-20 @ 06:00 UTC

KPMD 200408Z 2004/2024 28010KT P6SM BKN110
Wind
  • 280° at 10 KTS
Cloud Levels
  • Broken at 11,000' AGL

Nov-20@
06:00 UTC

Nov-20 @ 06:00 UTC

Nov-20@
09:00 UTC

Nov-20 @ 09:00 UTC

FM200600 22015KT P6SM OVC100

From

From Standard forecast or significant change

Wind
  • 220° at 15 KTS
Cloud Levels
  • Overcast at 10,000' AGL

Nov-20@
09:00 UTC

Nov-20 @ 09:00 UTC

Nov-20@
15:00 UTC

Nov-20 @ 15:00 UTC

FM200900 24015KT P6SM VCSH BKN040 OVC080

From

From Standard forecast or significant change

Wind
  • 240° at 15 KTS
Cloud Levels
  • Broken at 4,000' AGL
  • Overcast at 8,000' AGL

Nov-20@
15:00 UTC

Nov-20 @ 15:00 UTC

Nov-20@
21:00 UTC

Nov-20 @ 21:00 UTC

FM201500 23015KT 5SM -SHRA BKN025 OVC040

From

From Standard forecast or significant change

Wind
  • 230° at 15 KTS
Conditions
Light Rain
Cloud Levels
  • Broken at 2,500' AGL
  • Overcast at 4,000' AGL

Nov-20@
21:00 UTC

Nov-20 @ 21:00 UTC

Nov-21@
00:00 UTC

Nov-21 @ 00:00 UTC

FM202100 23015KT P6SM -SHRA BKN030 OVC050

From

From Standard forecast or significant change

Wind
  • 230° at 15 KTS
Conditions
Light Rain
Cloud Levels
  • Broken at 3,000' AGL
  • Overcast at 5,000' AGL